Time;durP1;ratioP1;P1;durP2;ratioP2;P2;SDS_P1;SDS_P2;PMS_P1;PMS_P2;Temp;Humidity;BMP_temperature;BMP_pressure;BME280_temperature;BME280_humidity;BME280_pressure;Samples;Min_cycle;Max_cycle;Signal;HPM_P1;HPM_P2
2024/04/17 00:00:52;;;;;;;35.90;20.33;;;0.30;99.90;;;;;;5450819;26;20026;-70
2024/04/17 00:03:17;;;;;;;43.45;22.80;;;0.30;99.90;;;;;;5450284;26;20007;-71
2024/04/17 00:05:43;;;;;;;46.55;21.77;;;0.30;99.90;;;;;;5450994;26;20017;-70
2024/04/17 00:08:09;;;;;;;39.80;18.70;;;0.30;99.90;;;;;;5450331;26;20046;-70
2024/04/17 00:10:34;;;;;;;40.08;21.20;;;0.20;99.90;;;;;;5450456;26;20343;-70
2024/04/17 00:13:00;;;;;;;31.10;15.05;;;0.30;99.90;;;;;;5451598;26;20367;-71
2024/04/17 00:15:26;;;;;;;37.50;16.95;;;0.30;99.90;;;;;;5454274;26;20018;-71
2024/04/17 00:17:51;;;;;;;33.17;14.77;;;0.30;99.90;;;;;;5453875;26;20402;-70
2024/04/17 00:20:17;;;;;;;28.77;14.40;;;0.30;99.90;;;;;;5433244;26;19999;-71
2024/04/17 00:22:42;;;;;;;28.23;16.20;;;0.20;99.90;;;;;;5449763;26;21675;-70
2024/04/17 00:25:08;;;;;;;27.25;13.27;;;0.30;99.90;;;;;;5454689;26;20436;-70
2024/04/17 00:27:34;;;;;;;25.73;13.90;;;0.30;99.90;;;;;;5444720;26;20019;-70
2024/04/17 00:29:59;;;;;;;28.83;14.57;;;0.30;99.90;;;;;;5451205;26;20389;-70
2024/04/17 00:32:25;;;;;;;18.45;11.35;;;0.30;99.90;;;;;;5445032;26;20326;-70
2024/04/17 00:34:50;;;;;;;19.80;10.65;;;0.20;99.90;;;;;;5430194;26;20003;-70
2024/04/17 00:37:16;;;;;;;19.55;10.30;;;0.20;99.90;;;;;;5397799;26;19999;-70
2024/04/17 00:39:42;;;;;;;26.17;12.52;;;0.30;99.90;;;;;;5465760;26;20082;-70
2024/04/17 00:42:07;;;;;;;28.35;14.20;;;0.30;99.90;;;;;;5480858;26;20067;-70
2024/04/17 00:44:33;;;;;;;34.13;18.42;;;0.30;99.90;;;;;;5475863;26;20312;-71
2024/04/17 00:46:59;;;;;;;34.70;18.80;;;0.30;99.90;;;;;;5466236;26;20006;-70
2024/04/17 00:49:25;;;;;;;34.28;19.00;;;0.30;99.90;;;;;;5469815;26;19999;-70
2024/04/17 00:51:51;;;;;;;35.10;18.08;;;0.30;99.90;;;;;;5487031;26;20002;-71
2024/04/17 00:54:18;;;;;;;63.30;33.08;;;0.20;99.90;;;;;;5490408;26;20436;-71
2024/04/17 00:56:43;;;;;;;47.63;27.17;;;0.10;99.90;;;;;;5489552;26;20006;-70
2024/04/17 00:59:10;;;;;;;43.97;24.40;;;0.10;99.90;;;;;;5490623;26;20075;-70
2024/04/17 01:01:36;;;;;;;65.32;33.00;;;0.10;99.90;;;;;;5466523;26;20491;-70
2024/04/17 01:04:02;;;;;;;46.20;23.65;;;0.10;99.90;;;;;;5490112;26;20010;-68
2024/04/17 01:06:28;;;;;;;39.53;19.60;;;0.00;99.90;;;;;;5489658;26;20002;-68
2024/04/17 01:08:53;;;;;;;32.85;19.23;;;0.00;99.90;;;;;;5488375;26;20002;-69
2024/04/17 01:11:19;;;;;;;38.30;18.58;;;0.00;99.90;;;;;;5489228;26;20010;-68
2024/04/17 01:13:45;;;;;;;36.42;17.50;;;0.00;99.90;;;;;;5489968;26;20002;-69
2024/04/17 01:16:11;;;;;;;39.22;18.60;;;-0.10;99.90;;;;;;5490099;26;19994;-68
2024/04/17 01:18:41;;;;;;;44.35;21.40;;;0.00;99.90;;;;;;5472753;26;19998;-68
2024/04/17 01:21:07;;;;;;;33.78;19.75;;;-0.10;99.90;;;;;;5487939;26;20002;-68
2024/04/17 01:23:32;;;;;;;35.35;19.02;;;0.00;99.90;;;;;;5487437;26;20002;-69
2024/04/17 01:25:58;;;;;;;30.52;18.77;;;-0.10;99.90;;;;;;5489228;26;20017;-69
2024/04/17 01:28:23;;;;;;;34.53;18.10;;;0.00;99.90;;;;;;5490186;26;20339;-69
2024/04/17 01:30:49;;;;;;;37.30;17.25;;;0.00;99.90;;;;;;5489402;26;20447;-69
2024/04/17 01:33:15;;;;;;;36.70;19.48;;;-0.10;99.90;;;;;;5488512;26;20002;-68
2024/04/17 01:35:40;;;;;;;38.08;18.00;;;-0.10;99.90;;;;;;5487641;26;20384;-69
2024/04/17 01:38:06;;;;;;;30.55;17.85;;;-0.10;99.90;;;;;;5489690;26;20134;-70
2024/04/17 01:40:31;;;;;;;34.97;17.50;;;-0.10;99.90;;;;;;5489323;26;19998;-70
2024/04/17 01:42:57;;;;;;;33.88;17.30;;;-0.10;99.90;;;;;;5488122;26;20466;-68
2024/04/17 01:45:23;;;;;;;24.20;13.05;;;-0.10;99.90;;;;;;5487671;26;20034;-71
2024/04/17 01:47:48;;;;;;;18.33;11.38;;;-0.20;99.90;;;;;;5486777;26;20018;-69
2024/04/17 01:50:26;;;;;;;22.42;12.48;;;-0.10;99.90;;;;;;5463576;26;20002;-70
2024/04/17 01:52:52;;;;;;;22.73;12.40;;;-0.10;99.90;;;;;;5489380;26;20016;-70
2024/04/17 01:55:18;;;;;;;23.98;12.77;;;-0.10;99.90;;;;;;5479945;26;19991;-70
2024/04/17 01:57:43;;;;;;;24.65;13.57;;;-0.10;99.90;;;;;;5475006;26;20450;-70
2024/04/17 02:00:09;;;;;;;23.35;11.82;;;0.00;99.90;;;;;;5464370;26;20014;-70
2024/04/17 02:02:35;;;;;;;26.05;12.52;;;0.00;99.90;;;;;;5488854;26;20002;-71
2024/04/17 02:05:00;;;;;;;22.90;11.40;;;0.10;99.90;;;;;;5488586;26;20074;-71
2024/04/17 02:07:26;;;;;;;22.42;10.05;;;0.20;99.90;;;;;;5489493;26;20035;-70
2024/04/17 02:09:53;;;;;;;21.67;10.63;;;0.20;99.90;;;;;;5488274;26;20006;-71
2024/04/17 02:12:19;;;;;;;20.80;11.38;;;0.30;99.90;;;;;;5488960;26;20021;-71
2024/04/17 02:14:45;;;;;;;25.15;14.40;;;0.30;99.90;;;;;;5488767;26;20018;-70
2024/04/17 02:17:10;;;;;;;25.20;13.77;;;0.40;99.90;;;;;;5489129;26;20010;-71
2024/04/17 02:19:36;;;;;;;27.70;16.85;;;0.40;99.90;;;;;;5466363;26;20510;-71
2024/04/17 02:22:01;;;;;;;32.85;19.30;;;0.40;99.90;;;;;;5488716;26;20024;-70
2024/04/17 02:24:27;;;;;;;33.72;18.48;;;0.40;99.90;;;;;;5488677;26;20006;-70
2024/04/17 02:26:53;;;;;;;35.60;20.65;;;0.30;99.90;;;;;;5488748;26;20009;-70
2024/04/17 02:29:18;;;;;;;38.25;19.17;;;0.30;99.90;;;;;;5486942;26;20002;-70
2024/04/17 02:31:44;;;;;;;32.67;17.88;;;0.30;99.90;;;;;;5486122;26;20006;-70
2024/04/17 02:34:10;;;;;;;32.63;17.98;;;0.30;99.90;;;;;;5486042;26;19991;-70
2024/04/17 02:36:35;;;;;;;36.13;18.45;;;0.20;99.90;;;;;;5485529;26;20028;-70
2024/04/17 02:39:02;;;;;;;39.35;21.30;;;0.30;99.90;;;;;;5487070;26;20484;-71
2024/04/17 02:41:28;;;;;;;26.23;15.02;;;0.40;99.90;;;;;;5488706;26;20010;-70
2024/04/17 02:43:53;;;;;;;29.95;15.98;;;0.40;99.90;;;;;;5487946;26;20030;-70
2024/04/17 02:46:19;;;;;;;29.40;18.02;;;0.50;99.90;;;;;;5489358;26;20005;-70
2024/04/17 02:48:45;;;;;;;31.55;17.60;;;0.60;99.90;;;;;;5476178;26;20006;-71
2024/04/17 02:51:10;;;;;;;30.60;17.48;;;0.60;99.90;;;;;;5475073;26;20420;-71
2024/04/17 02:53:36;;;;;;;29.15;16.92;;;0.60;99.90;;;;;;5486655;26;20017;-72
2024/04/17 02:56:02;;;;;;;26.02;16.85;;;0.60;99.90;;;;;;5480737;26;20006;-70
2024/04/17 02:58:27;;;;;;;31.55;15.63;;;0.70;99.90;;;;;;5486706;26;20002;-71
2024/04/17 03:00:53;;;;;;;41.50;20.30;;;0.70;99.90;;;;;;5484628;26;20000;-70
2024/04/17 03:03:19;;;;;;;36.22;18.67;;;0.70;99.90;;;;;;5456006;26;20009;-70
2024/04/17 03:05:44;;;;;;;36.17;20.02;;;0.80;99.90;;;;;;5459500;26;20404;-70
2024/04/17 03:08:10;;;;;;;35.10;18.27;;;0.80;99.90;;;;;;5486257;26;20006;-71
2024/04/17 03:10:35;;;;;;;37.50;20.52;;;0.80;99.90;;;;;;5463350;26;20002;-70
2024/04/17 03:13:01;;;;;;;41.88;21.40;;;0.80;99.90;;;;;;5488167;26;20066;-70
2024/04/17 03:15:27;;;;;;;40.28;21.02;;;0.80;99.90;;;;;;5485907;26;20006;-70
2024/04/17 03:17:52;;;;;;;43.58;20.50;;;0.80;99.90;;;;;;5481980;26;20006;-70
2024/04/17 03:20:18;;;;;;;30.10;19.60;;;0.80;99.90;;;;;;5487254;26;20013;-71
2024/04/17 03:22:44;;;;;;;31.88;19.20;;;0.90;99.90;;;;;;5467258;26;20439;-70
2024/04/17 03:25:09;;;;;;;34.55;17.25;;;0.90;99.90;;;;;;5486614;26;20002;-71
2024/04/17 03:27:35;;;;;;;32.17;19.13;;;1.00;99.90;;;;;;5474848;26;20025;-71
2024/04/17 03:30:01;;;;;;;36.67;18.27;;;1.00;99.90;;;;;;5487442;26;20030;-71
2024/04/17 03:32:26;;;;;;;35.97;18.30;;;1.10;99.90;;;;;;5472846;26;20083;-71
2024/04/17 03:34:52;;;;;;;29.70;18.98;;;1.20;99.90;;;;;;5476372;26;20038;-71
2024/04/17 03:37:17;;;;;;;27.95;17.88;;;1.20;99.90;;;;;;5487065;26;20005;-70
2024/04/17 03:39:43;;;;;;;36.42;18.88;;;1.20;99.90;;;;;;5451254;26;20142;-71
2024/04/17 03:42:09;;;;;;;27.40;17.08;;;1.30;99.90;;;;;;5477143;26;20428;-71
2024/04/17 03:44:34;;;;;;;30.40;17.42;;;1.30;99.90;;;;;;5472617;26;20025;-71
2024/04/17 03:47:00;;;;;;;32.03;18.88;;;1.40;99.90;;;;;;5476822;26;20020;-69
2024/04/17 03:49:26;;;;;;;34.08;18.38;;;1.40;99.90;;;;;;5470769;26;19994;-70
2024/04/17 03:51:52;;;;;;;31.60;18.30;;;1.50;99.90;;;;;;5488599;26;20348;-71
2024/04/17 03:54:17;;;;;;;33.33;18.52;;;1.60;99.90;;;;;;5478095;26;20048;-70
2024/04/17 03:56:43;;;;;;;35.63;18.52;;;1.60;99.90;;;;;;5479835;26;20006;-70
2024/04/17 03:59:08;;;;;;;33.35;19.10;;;1.70;99.90;;;;;;5489183;26;20002;-70
2024/04/17 04:01:36;;;;;;;30.40;17.30;;;1.80;99.90;;;;;;5490408;26;20342;-70
2024/04/17 04:04:02;;;;;;;30.30;16.58;;;1.80;99.90;;;;;;5478399;26;20048;-70
2024/04/17 04:06:28;;;;;;;27.10;15.20;;;1.80;99.90;;;;;;5456399;26;20003;-70
2024/04/17 04:08:53;;;;;;;23.40;14.38;;;1.90;99.90;;;;;;5478256;26;20440;-70
2024/04/17 04:11:19;;;;;;;26.02;15.07;;;2.00;99.90;;;;;;5476329;26;19999;-71
2024/04/17 04:13:44;;;;;;;71.35;33.65;;;2.00;99.90;;;;;;5490166;26;20038;-70
2024/04/17 04:16:10;;;;;;;35.72;19.52;;;2.00;99.90;;;;;;5489404;26;20507;-69
2024/04/17 04:18:36;;;;;;;28.80;16.92;;;2.10;99.90;;;;;;5479711;26;19998;-71
2024/04/17 04:21:01;;;;;;;153.13;64.68;;;2.10;99.90;;;;;;5490378;26;20048;-70
2024/04/17 04:23:27;;;;;;;199.07;80.50;;;2.20;99.90;;;;;;5471690;26;20006;-71
2024/04/17 04:25:52;;;;;;;61.83;29.77;;;2.20;99.90;;;;;;5488846;26;20071;-71
2024/04/17 04:28:18;;;;;;;47.05;24.25;;;2.10;99.90;;;;;;5488785;26;20335;-71
2024/04/17 04:30:43;;;;;;;82.90;33.97;;;2.10;99.90;;;;;;5483622;26;19998;-70
2024/04/17 04:33:09;;;;;;;306.48;86.63;;;2.10;99.90;;;;;;5488942;26;20003;-70
2024/04/17 04:35:35;;;;;;;170.23;55.30;;;2.10;99.90;;;;;;5476806;26;20006;-70
2024/04/17 04:38:01;;;;;;;98.13;35.90;;;2.20;99.90;;;;;;5489870;26;20010;-70
2024/04/17 04:40:26;;;;;;;54.42;25.33;;;2.20;99.90;;;;;;5487695;26;20355;-70
2024/04/17 04:42:52;;;;;;;65.88;27.38;;;2.20;99.90;;;;;;5490054;26;20006;-70
2024/04/17 04:45:17;;;;;;;50.90;23.73;;;2.30;99.90;;;;;;5490094;26;20006;-70
2024/04/17 04:47:43;;;;;;;33.38;19.80;;;2.30;99.90;;;;;;5485055;26;20410;-70
2024/04/17 04:50:09;;;;;;;31.25;18.08;;;2.30;99.90;;;;;;5490211;26;20013;-70
2024/04/17 04:52:34;;;;;;;37.10;19.65;;;2.30;99.90;;;;;;5457502;26;19998;-70
2024/04/17 04:55:00;;;;;;;30.40;18.15;;;2.30;99.90;;;;;;5490083;26;20009;-70
2024/04/17 04:57:25;;;;;;;32.60;20.88;;;2.40;99.90;;;;;;5466129;26;20072;-70
2024/04/17 04:59:51;;;;;;;34.33;20.25;;;2.40;99.90;;;;;;5479351;26;20014;-69
2024/04/17 05:02:17;;;;;;;39.95;23.73;;;2.50;99.90;;;;;;5480676;26;20002;-70
2024/04/17 05:04:43;;;;;;;38.53;25.52;;;2.50;99.90;;;;;;5453982;26;20372;-70
2024/04/17 05:07:08;;;;;;;166.02;66.85;;;2.60;99.90;;;;;;5468775;26;20006;-70
2024/04/17 05:09:34;;;;;;;100.70;38.90;;;2.60;99.90;;;;;;5476939;26;20447;-71
2024/04/17 05:12:00;;;;;;;327.52;99.07;;;2.70;99.90;;;;;;5457507;26;20050;-70
2024/04/17 05:14:25;;;;;;;733.35;261.80;;;2.70;99.90;;;;;;5455862;26;20014;-70
2024/04/17 05:16:51;;;;;;;607.47;204.73;;;2.70;99.90;;;;;;5481466;26;20021;-70
2024/04/17 05:19:17;;;;;;;442.88;136.02;;;2.80;99.90;;;;;;5479910;26;20006;-72
2024/04/17 05:21:42;;;;;;;100.47;35.50;;;2.80;99.90;;;;;;5489513;26;20006;-72
2024/04/17 05:24:08;;;;;;;73.72;31.15;;;2.80;99.90;;;;;;5453927;26;20020;-69
2024/04/17 05:26:33;;;;;;;39.55;22.05;;;2.80;99.90;;;;;;5483375;26;21259;-71
2024/04/17 05:28:59;;;;;;;47.15;21.55;;;2.90;99.90;;;;;;5487768;26;20010;-70
2024/04/17 05:31:25;;;;;;;33.97;18.88;;;3.00;99.90;;;;;;5489002;26;20013;-70
2024/04/17 05:33:50;;;;;;;53.00;26.23;;;3.00;99.90;;;;;;5473455;26;20006;-71
2024/04/17 05:36:16;;;;;;;83.07;34.33;;;3.10;99.90;;;;;;5487440;26;20002;-71
2024/04/17 05:38:42;;;;;;;138.25;54.75;;;3.20;99.90;;;;;;5442429;26;20503;-70
2024/04/17 05:41:07;;;;;;;106.43;47.30;;;3.20;99.90;;;;;;5489209;26;20006;-70
2024/04/17 05:43:33;;;;;;;90.32;43.58;;;3.30;99.90;;;;;;5486529;26;20438;-70
2024/04/17 05:45:58;;;;;;;185.57;77.07;;;3.40;99.90;;;;;;5482014;26;20024;-70
2024/04/17 05:48:24;;;;;;;100.85;45.55;;;3.40;99.90;;;;;;5475779;26;20002;-70
2024/04/17 05:50:50;;;;;;;36.33;22.05;;;3.40;99.90;;;;;;5479408;26;20048;-69
2024/04/17 05:53:15;;;;;;;45.92;24.85;;;3.50;99.90;;;;;;5479755;26;20034;-69
2024/04/17 05:55:41;;;;;;;51.38;26.77;;;3.60;99.90;;;;;;5480672;26;20005;-69
2024/04/17 05:58:07;;;;;;;54.90;26.05;;;3.70;99.90;;;;;;5485495;26;19994;-69
2024/04/17 06:00:36;;;;;;;44.05;23.60;;;3.70;99.90;;;;;;5474624;26;20065;-70
2024/04/17 06:03:02;;;;;;;44.25;22.80;;;3.80;99.90;;;;;;5469849;26;20014;-69
2024/04/17 06:05:29;;;;;;;50.35;28.30;;;3.80;99.90;;;;;;5479919;26;20021;-69
2024/04/17 06:07:55;;;;;;;42.05;22.08;;;3.90;99.90;;;;;;5483373;26;20412;-70
2024/04/17 06:10:20;;;;;;;39.45;20.60;;;3.90;99.90;;;;;;5449124;26;20009;-69
2024/04/17 06:12:46;;;;;;;39.10;21.38;;;3.90;99.90;;;;;;5484974;26;20034;-71
2024/04/17 06:15:12;;;;;;;32.78;18.48;;;3.90;99.90;;;;;;5479289;26;20010;-70
2024/04/17 06:17:38;;;;;;;35.78;19.50;;;4.00;99.90;;;;;;5468785;26;20010;-70
2024/04/17 06:20:04;;;;;;;31.23;16.83;;;4.00;99.90;;;;;;5485486;26;20043;-70
2024/04/17 06:22:29;;;;;;;41.92;21.55;;;4.00;99.90;;;;;;5454267;26;20353;-70
2024/04/17 06:24:55;;;;;;;31.40;16.30;;;4.00;99.90;;;;;;5467124;26;20005;-71
2024/04/17 06:27:21;;;;;;;22.67;15.02;;;4.00;99.90;;;;;;5488770;26;20082;-70
2024/04/17 06:29:47;;;;;;;28.77;16.00;;;4.00;99.90;;;;;;5464946;26;20002;-70
2024/04/17 06:32:12;;;;;;;26.45;16.92;;;4.00;99.90;;;;;;5488779;26;20010;-69
2024/04/17 06:34:38;;;;;;;31.42;18.60;;;4.00;99.90;;;;;;5478503;26;20432;-69
2024/04/17 06:37:03;;;;;;;31.35;17.88;;;4.00;99.90;;;;;;5471189;26;19998;-70
2024/04/17 06:39:30;;;;;;;28.83;18.02;;;4.10;99.90;;;;;;5464539;26;20041;-70
2024/04/17 06:41:57;;;;;;;26.92;16.25;;;4.10;99.90;;;;;;5468276;26;20003;-70
2024/04/17 06:44:23;;;;;;;28.92;18.75;;;4.20;99.90;;;;;;5452592;26;20431;-70
2024/04/17 06:46:49;;;;;;;30.88;19.75;;;4.30;99.90;;;;;;5467529;26;20002;-70
2024/04/17 06:49:14;;;;;;;32.63;18.92;;;4.20;99.90;;;;;;5486127;26;20009;-70
2024/04/17 06:51:40;;;;;;;31.13;19.52;;;4.30;99.90;;;;;;5488663;26;20339;-69
2024/04/17 06:54:06;;;;;;;33.42;20.75;;;4.30;99.90;;;;;;5484864;26;20014;-70
2024/04/17 06:56:31;;;;;;;35.67;21.98;;;4.30;99.90;;;;;;5484887;26;20523;-70
2024/04/17 06:58:57;;;;;;;33.90;22.83;;;4.40;99.90;;;;;;5484038;26;20496;-71
2024/04/17 07:01:22;;;;;;;35.78;21.30;;;4.40;99.90;;;;;;5485110;26;20039;-70
2024/04/17 07:03:48;;;;;;;26.85;18.13;;;4.30;99.90;;;;;;5483309;26;19994;-70
2024/04/17 07:06:14;;;;;;;29.27;19.35;;;4.20;99.90;;;;;;5481574;26;19999;-69
2024/04/17 07:08:40;;;;;;;34.33;19.85;;;4.20;99.90;;;;;;5476463;26;20002;-70
2024/04/17 07:11:05;;;;;;;27.83;20.13;;;4.30;99.90;;;;;;5470049;26;20006;-69
2024/04/17 07:13:31;;;;;;;27.13;16.52;;;4.20;99.90;;;;;;5487691;26;20546;-69
2024/04/17 07:15:57;;;;;;;25.20;16.33;;;4.20;99.90;;;;;;5478384;26;20018;-68
2024/04/17 07:18:24;;;;;;;26.85;16.98;;;4.10;99.90;;;;;;5483953;26;20002;-70
2024/04/17 07:20:50;;;;;;;27.05;17.20;;;4.20;99.90;;;;;;5487409;26;20003;-70
2024/04/17 07:23:16;;;;;;;29.40;18.13;;;4.20;99.90;;;;;;5485507;26;20425;-70
2024/04/17 07:25:42;;;;;;;27.10;17.00;;;4.20;99.90;;;;;;5488019;26;19998;-69
2024/04/17 07:28:08;;;;;;;25.38;16.10;;;4.30;99.90;;;;;;5486870;26;20041;-69
2024/04/17 07:30:40;;;;;;;34.90;19.95;;;4.20;99.90;;;;;;5488018;26;20010;-70
2024/04/17 07:33:06;;;;;;;;;;;4.30;99.90;;;;;;5487571;26;20032;-70
2024/04/17 07:35:32;;;;;;;35.45;23.27;;;4.30;99.90;;;;;;5486276;26;19924;-69
2024/04/17 07:37:57;;;;;;;24.80;15.90;;;4.30;99.90;;;;;;5487043;26;20023;-69
2024/04/17 07:40:23;;;;;;;23.35;14.77;;;4.30;99.90;;;;;;5488868;26;19994;-70
2024/04/17 07:42:49;;;;;;;23.67;14.75;;;4.30;99.90;;;;;;5491011;26;20002;-69
2024/04/17 07:45:14;;;;;;;27.92;16.50;;;4.40;99.90;;;;;;5489395;26;19999;-70
2024/04/17 07:47:40;;;;;;;24.67;15.88;;;4.30;99.90;;;;;;5471459;26;20074;-70
2024/04/17 07:50:06;;;;;;;24.70;16.65;;;4.30;99.90;;;;;;5490763;26;20014;-70
2024/04/17 07:52:32;;;;;;;23.15;14.05;;;4.30;99.90;;;;;;5489906;26;20439;-70
2024/04/17 07:54:57;;;;;;;22.50;15.65;;;4.20;99.90;;;;;;5489058;26;20002;-69
2024/04/17 07:57:23;;;;;;;23.52;14.07;;;4.10;99.90;;;;;;5490838;26;20034;-70
2024/04/17 07:59:49;;;;;;;24.02;15.73;;;4.20;99.90;;;;;;5490784;26;20006;-71
2024/04/17 08:02:14;;;;;;;24.65;15.93;;;4.20;99.90;;;;;;5490692;26;20006;-70
2024/04/17 08:04:40;;;;;;;22.80;14.52;;;4.20;99.90;;;;;;5490405;26;20347;-70
2024/04/17 08:07:06;;;;;;;23.60;15.20;;;4.10;99.90;;;;;;5490686;26;20002;-70
2024/04/17 08:09:32;;;;;;;23.40;14.77;;;4.10;99.90;;;;;;5458300;26;20034;-70
2024/04/17 08:11:57;;;;;;;19.88;13.02;;;4.10;99.90;;;;;;5487845;26;20367;-70
2024/04/17 08:14:23;;;;;;;23.35;14.70;;;4.10;99.90;;;;;;5490356;26;20018;-70
2024/04/17 08:16:49;;;;;;;21.45;14.43;;;4.20;99.90;;;;;;5490557;26;21783;-72
2024/04/17 08:19:15;;;;;;;21.20;13.88;;;4.20;99.90;;;;;;5466647;26;20006;-72
2024/04/17 08:21:40;;;;;;;21.38;13.50;;;4.10;99.90;;;;;;5483614;26;20014;-72
2024/04/17 08:24:06;;;;;;;23.27;14.32;;;4.20;99.90;;;;;;5490455;26;20010;-72
2024/04/17 08:26:31;;;;;;;19.65;12.00;;;4.20;99.90;;;;;;5490571;26;20022;-71
2024/04/17 08:28:57;;;;;;;19.15;12.57;;;4.10;99.90;;;;;;5490693;26;20009;-72
2024/04/17 08:31:23;;;;;;;17.85;11.93;;;4.10;99.90;;;;;;5470340;26;19994;-72
2024/04/17 08:33:48;;;;;;;17.85;11.93;;;4.10;99.90;;;;;;5488954;26;20017;-72
2024/04/17 08:36:14;;;;;;;17.77;12.05;;;4.20;99.90;;;;;;5486396;26;20076;-73
2024/04/17 08:38:41;;;;;;;18.27;12.73;;;4.30;99.90;;;;;;5490083;26;20006;-72
2024/04/17 08:41:07;;;;;;;21.52;12.90;;;4.30;99.90;;;;;;5489923;26;20006;-72
2024/04/17 08:43:36;;;;;;;18.73;11.23;;;4.40;99.90;;;;;;5487017;26;20046;-72
2024/04/17 08:46:03;;;;;;;15.85;11.35;;;4.40;99.90;;;;;;5490434;26;20495;-73
2024/04/17 08:48:31;;;;;;;16.08;12.18;;;4.40;99.90;;;;;;5490468;26;20483;-71
2024/04/17 08:50:58;;;;;;;18.75;11.48;;;4.50;99.90;;;;;;5484585;26;20016;-72
2024/04/17 08:53:26;;;;;;;18.42;11.88;;;4.60;99.90;;;;;;5490452;26;20425;-71
2024/04/17 08:55:52;;;;;;;17.30;11.35;;;4.60;99.90;;;;;;5489417;26;20002;-71
2024/04/17 08:58:18;;;;;;;15.68;10.63;;;4.70;99.90;;;;;;5490853;26;20013;-72
2024/04/17 09:00:49;;;;;;;12.15;9.15;;;4.80;99.90;;;;;;5483661;26;20328;-72
2024/04/17 09:03:20;;;;;;;15.77;9.60;;;4.80;99.90;;;;;;5489885;26;20002;-72
2024/04/17 09:05:47;;;;;;;14.20;10.30;;;4.80;99.90;;;;;;5489795;26;20012;-72
2024/04/17 09:08:13;;;;;;;11.75;8.60;;;4.80;99.90;;;;;;5486505;26;20362;-72
2024/04/17 09:10:39;;;;;;;11.90;9.35;;;4.90;99.90;;;;;;5467223;26;20013;-71
2024/04/17 09:13:05;;;;;;;10.55;7.55;;;4.90;99.90;;;;;;5490068;26;19998;-72
2024/04/17 09:15:30;;;;;;;11.05;7.40;;;5.00;99.90;;;;;;5489721;26;20017;-72
2024/04/17 09:17:59;;;;;;;9.70;7.82;;;5.00;99.90;;;;;;5489083;26;19999;-72
2024/04/17 09:20:24;;;;;;;11.25;7.75;;;5.10;99.90;;;;;;5489482;26;20038;-72
2024/04/17 09:22:53;;;;;;;10.27;7.80;;;5.20;99.90;;;;;;5489911;26;20022;-72
2024/04/17 09:25:19;;;;;;;12.77;8.60;;;5.30;99.90;;;;;;5485446;26;20335;-72
2024/04/17 09:27:46;;;;;;;8.45;7.40;;;5.30;99.90;;;;;;5475379;26;19998;-72
2024/04/17 09:30:15;;;;;;;8.93;7.57;;;5.30;99.90;;;;;;5485867;26;20008;-71
2024/04/17 09:32:44;;;;;;;10.57;7.47;;;5.40;99.90;;;;;;5489291;26;20001;-72
2024/04/17 09:35:11;;;;;;;10.75;7.68;;;5.50;99.90;;;;;;5487581;26;19998;-70
2024/04/17 09:37:37;;;;;;;10.05;7.18;;;5.50;99.90;;;;;;5488676;26;20470;-69
2024/04/17 09:40:04;;;;;;;9.38;6.97;;;5.70;99.90;;;;;;5490219;26;20002;-69
2024/04/17 09:42:32;;;;;;;10.90;7.70;;;5.80;99.90;;;;;;5489391;26;20014;-70
2024/04/17 09:45:00;;;;;;;9.13;6.43;;;6.10;99.90;;;;;;5485918;26;20325;-69
2024/04/17 09:47:28;;;;;;;10.80;6.15;;;6.20;99.90;;;;;;5465228;26;20477;-69
2024/04/17 09:49:55;;;;;;;7.53;6.65;;;6.10;99.90;;;;;;5489408;26;20002;-70
2024/04/17 09:52:20;;;;;;;8.82;6.80;;;6.00;99.90;;;;;;5486617;26;20324;-70
2024/04/17 09:54:49;;;;;;;9.48;7.90;;;6.00;99.90;;;;;;5481755;26;20040;-69
2024/04/17 09:57:15;;;;;;;7.97;6.95;;;5.90;99.90;;;;;;5484680;26;20017;-70
2024/04/17 09:59:42;;;;;;;8.93;7.22;;;5.80;99.90;;;;;;5476892;26;20388;-70
2024/04/17 10:02:15;;;;;;;8.00;6.90;;;5.80;99.90;;;;;;5486515;26;20010;-70
2024/04/17 10:04:42;;;;;;;29.85;14.90;;;5.80;99.90;;;;;;5487559;26;20724;-69
2024/04/17 10:07:11;;;;;;;316.70;114.43;;;5.70;99.90;;;;;;5471843;26;19990;-69
2024/04/17 10:09:39;;;;;;;116.90;42.22;;;5.70;99.90;;;;;;5466221;26;20351;-69
2024/04/17 10:12:07;;;;;;;55.03;23.67;;;5.60;99.90;;;;;;5488066;26;20002;-69
2024/04/17 10:14:34;;;;;;;119.53;42.75;;;5.70;99.90;;;;;;5489208;26;20002;-69
2024/04/17 10:17:00;;;;;;;47.78;23.08;;;5.70;99.90;;;;;;5489091;26;20017;-69
2024/04/17 10:19:26;;;;;;;148.63;82.68;;;5.80;99.90;;;;;;5487511;26;19994;-70
2024/04/17 10:21:54;;;;;;;49.17;27.05;;;6.00;99.90;;;;;;5476654;26;19994;-69
2024/04/17 10:24:20;;;;;;;246.85;99.63;;;6.10;99.90;;;;;;5488167;26;20003;-70
2024/04/17 10:26:48;;;;;;;113.80;38.22;;;6.10;99.90;;;;;;5488071;26;20403;-70
2024/04/17 10:29:24;;;;;;;23.52;13.10;;;6.30;99.90;;;;;;5488590;26;20026;-70
2024/04/17 10:32:12;;;;;;;19.67;12.35;;;6.30;99.90;;;;;;5487112;26;20002;-69
2024/04/17 10:34:49;;;;;;;21.05;13.43;;;6.40;99.90;;;;;;5488150;26;20446;-70
2024/04/17 10:37:16;;;;;;;13.18;9.02;;;6.30;99.90;;;;;;5488124;26;20339;-69
2024/04/17 10:39:42;;;;;;;23.88;13.30;;;6.40;99.90;;;;;;5487553;26;20013;-70
2024/04/17 10:42:09;;;;;;;30.80;14.55;;;6.60;99.90;;;;;;5488497;26;20002;-70
2024/04/17 10:44:36;;;;;;;28.30;11.70;;;6.70;99.90;;;;;;5488622;26;20014;-70
2024/04/17 10:47:05;;;;;;;27.38;10.15;;;6.90;99.90;;;;;;5484479;26;20010;-70
2024/04/17 10:49:40;;;;;;;82.50;30.48;;;7.10;99.90;;;;;;5488684;26;19998;-70
2024/04/17 10:52:06;;;;;;;10.07;6.68;;;7.00;99.90;;;;;;5488858;26;19998;-70
2024/04/17 10:54:34;;;;;;;17.63;11.82;;;6.70;98.80;;;;;;5484688;26;20447;-70
2024/04/17 10:57:03;;;;;;;14.05;9.40;;;6.80;99.90;;;;;;5484703;26;20024;-70
2024/04/17 10:59:29;;;;;;;7.53;6.20;;;6.80;99.90;;;;;;5487574;26;20449;-70
2024/04/17 11:01:55;;;;;;;6.35;5.15;;;6.60;99.90;;;;;;5487919;26;20014;-70
2024/04/17 11:04:23;;;;;;;83.78;27.23;;;6.50;99.90;;;;;;5486875;26;20009;-70
2024/04/17 11:06:49;;;;;;;32.45;12.65;;;6.50;99.90;;;;;;5488049;26;20018;-70
2024/04/17 11:09:16;;;;;;;35.58;14.07;;;6.50;99.90;;;;;;5471008;26;20017;-69
2024/04/17 11:11:49;;;;;;;5.07;4.30;;;6.60;99.90;;;;;;5480877;26;20014;-70
2024/04/17 11:14:16;;;;;;;7.50;4.82;;;6.70;99.90;;;;;;5487712;26;20017;-70
2024/04/17 11:16:44;;;;;;;23.30;10.68;;;6.80;99.90;;;;;;5487802;26;20003;-70
2024/04/17 11:19:09;;;;;;;19.27;8.63;;;7.00;99.70;;;;;;5486146;26;20528;-70
2024/04/17 11:21:39;;;;;;;4.68;4.13;;;7.10;98.30;;;;;;5471706;26;20002;-70
2024/04/17 11:24:04;;;;;;;8.73;5.97;;;7.30;99.80;;;;;;5482945;26;20450;-69
2024/04/17 11:26:31;;;;;;;6.20;4.47;;;7.40;98.10;;;;;;5485752;26;20018;-70
2024/04/17 11:28:57;;;;;;;15.73;10.48;;;7.40;93.20;;;;;;5475652;26;20439;-70
2024/04/17 11:31:23;;;;;;;10.52;7.53;;;7.20;90.60;;;;;;5467009;26;20013;-70
2024/04/17 11:33:49;;;;;;;33.65;16.33;;;7.10;91.20;;;;;;5486349;26;20006;-69
2024/04/17 11:36:15;;;;;;;91.60;37.08;;;6.90;89.70;;;;;;5484558;26;20461;-70
2024/04/17 11:38:44;;;;;;;45.97;22.05;;;7.00;92.90;;;;;;5476584;26;20007;-70
2024/04/17 11:41:11;;;;;;;38.65;18.05;;;7.00;92.70;;;;;;5484713;26;20017;-70
2024/04/17 11:43:37;;;;;;;17.45;9.70;;;7.00;93.10;;;;;;5487228;26;20006;-70
2024/04/17 11:46:03;;;;;;;7.93;5.80;;;7.00;91.60;;;;;;5487931;26;20025;-70
2024/04/17 11:48:29;;;;;;;10.18;6.72;;;7.20;92.00;;;;;;5475125;26;20022;-69
2024/04/17 11:50:54;;;;;;;6.55;4.78;;;7.40;92.60;;;;;;5485037;26;20335;-72
2024/04/17 11:53:20;;;;;;;108.13;41.90;;;7.40;86.70;;;;;;5486935;26;20002;-70
2024/04/17 11:55:46;;;;;;;64.72;25.80;;;7.50;87.00;;;;;;5478295;26;19995;-70
2024/04/17 11:58:11;;;;;;;33.47;13.48;;;7.40;87.20;;;;;;5485768;26;20010;-71
2024/04/17 12:00:38;;;;;;;30.08;14.57;;;7.50;86.00;;;;;;5487144;26;20137;-70
2024/04/17 12:03:04;;;;;;;73.13;29.30;;;7.40;84.30;;;;;;5487096;26;20014;-70
2024/04/17 12:05:29;;;;;;;74.95;25.20;;;7.40;85.60;;;;;;5473166;26;20050;-70
2024/04/17 12:07:57;;;;;;;35.88;13.05;;;7.50;87.00;;;;;;5487615;26;20002;-70
2024/04/17 12:10:22;;;;;;;39.03;14.65;;;7.50;88.00;;;;;;5466180;26;20021;-70
2024/04/17 12:12:48;;;;;;;53.92;22.05;;;7.50;85.30;;;;;;5490640;26;20014;-70
2024/04/17 12:15:14;;;;;;;101.80;40.63;;;7.50;84.70;;;;;;5479279;26;20025;-70
2024/04/17 12:17:39;;;;;;;49.92;19.42;;;7.60;85.80;;;;;;5474575;26;20010;-70
2024/04/17 12:20:05;;;;;;;37.70;14.27;;;7.60;86.10;;;;;;5488585;26;20046;-70
2024/04/17 12:22:31;;;;;;;17.65;8.98;;;7.70;85.90;;;;;;5480585;26;20017;-70
2024/04/17 12:27:41;;;;;;;5.00;3.10;;;7.90;82.90;;;;;;5490099;26;20013;-70
2024/04/17 12:30:07;;;;;;;3.17;2.90;;;7.70;81.10;;;;;;5490835;26;20002;-70
2024/04/17 12:32:32;;;;;;;14.32;6.18;;;7.70;79.20;;;;;;5490298;26;20022;-70
2024/04/17 12:34:58;;;;;;;25.73;11.35;;;7.70;81.10;;;;;;5490509;26;20420;-70